sensor_id;sensor_type;location;lat;lon;timestamp;P1;durP1;ratioP1;P2;durP2;ratioP2
15812;SDS011;8007;51.404;6.304;2023-07-29T00:01:10;5.63;;;1.87;;
15812;SDS011;8007;51.404;6.304;2023-07-29T00:03:13;4.17;;;1.60;;
15812;SDS011;8007;51.404;6.304;2023-07-29T00:05:19;2.60;;;2.00;;
15812;SDS011;8007;51.404;6.304;2023-07-29T00:07:22;2.30;;;2.00;;
15812;SDS011;8007;51.404;6.304;2023-07-29T00:09:24;4.23;;;1.97;;
15812;SDS011;8007;51.404;6.304;2023-07-29T00:11:27;2.27;;;2.00;;
15812;SDS011;8007;51.404;6.304;2023-07-29T00:13:34;2.20;;;1.90;;
15812;SDS011;8007;51.404;6.304;2023-07-29T00:15:36;3.07;;;2.20;;
15812;SDS011;8007;51.404;6.304;2023-07-29T00:17:38;2.60;;;2.20;;
15812;SDS011;8007;51.404;6.304;2023-07-29T00:19:41;2.27;;;1.97;;
15812;SDS011;8007;51.404;6.304;2023-07-29T00:21:45;4.00;;;1.80;;
15812;SDS011;8007;51.404;6.304;2023-07-29T00:23:47;4.43;;;2.10;;
15812;SDS011;8007;51.404;6.304;2023-07-29T00:25:50;3.90;;;2.40;;
15812;SDS011;8007;51.404;6.304;2023-07-29T00:27:54;6.40;;;2.10;;
15812;SDS011;8007;51.404;6.304;2023-07-29T00:29:57;2.80;;;2.20;;
15812;SDS011;8007;51.404;6.304;2023-07-29T00:32:00;2.60;;;2.20;;
15812;SDS011;8007;51.404;6.304;2023-07-29T00:34:01;2.73;;;2.53;;
15812;SDS011;8007;51.404;6.304;2023-07-29T00:36:04;3.83;;;2.10;;
15812;SDS011;8007;51.404;6.304;2023-07-29T00:38:08;3.57;;;2.23;;
15812;SDS011;8007;51.404;6.304;2023-07-29T00:40:13;2.93;;;2.20;;
15812;SDS011;8007;51.404;6.304;2023-07-29T00:42:17;3.03;;;2.70;;
15812;SDS011;8007;51.404;6.304;2023-07-29T00:44:19;2.67;;;2.47;;
15812;SDS011;8007;51.404;6.304;2023-07-29T00:46:22;2.97;;;2.77;;
15812;SDS011;8007;51.404;6.304;2023-07-29T00:48:24;3.57;;;3.03;;
15812;SDS011;8007;51.404;6.304;2023-07-29T00:50:41;4.50;;;2.80;;
15812;SDS011;8007;51.404;6.304;2023-07-29T00:52:44;2.83;;;2.63;;
15812;SDS011;8007;51.404;6.304;2023-07-29T00:55:10;4.30;;;3.03;;
15812;SDS011;8007;51.404;6.304;2023-07-29T00:57:12;3.47;;;2.60;;
15812;SDS011;8007;51.404;6.304;2023-07-29T00:59:15;4.33;;;2.70;;
15812;SDS011;8007;51.404;6.304;2023-07-29T01:01:20;2.83;;;2.63;;
15812;SDS011;8007;51.404;6.304;2023-07-29T01:06:15;3.50;;;2.53;;
15812;SDS011;8007;51.404;6.304;2023-07-29T01:11:21;3.97;;;2.67;;
15812;SDS011;8007;51.404;6.304;2023-07-29T01:13:41;4.00;;;3.00;;
15812;SDS011;8007;51.404;6.304;2023-07-29T01:15:55;4.13;;;3.10;;
15812;SDS011;8007;51.404;6.304;2023-07-29T01:18:04;4.53;;;2.60;;
15812;SDS011;8007;51.404;6.304;2023-07-29T01:20:09;4.43;;;2.80;;
15812;SDS011;8007;51.404;6.304;2023-07-29T01:22:15;3.73;;;2.90;;
15812;SDS011;8007;51.404;6.304;2023-07-29T01:24:20;4.47;;;2.53;;
15812;SDS011;8007;51.404;6.304;2023-07-29T01:26:23;3.10;;;2.80;;
15812;SDS011;8007;51.404;6.304;2023-07-29T01:28:37;6.60;;;2.90;;
15812;SDS011;8007;51.404;6.304;2023-07-29T01:30:43;5.37;;;2.80;;
15812;SDS011;8007;51.404;6.304;2023-07-29T01:32:59;5.13;;;3.00;;
15812;SDS011;8007;51.404;6.304;2023-07-29T01:35:07;5.20;;;3.17;;
15812;SDS011;8007;51.404;6.304;2023-07-29T01:37:17;3.00;;;2.80;;
15812;SDS011;8007;51.404;6.304;2023-07-29T01:39:38;3.20;;;3.00;;
15812;SDS011;8007;51.404;6.304;2023-07-29T01:41:41;3.43;;;3.10;;
15812;SDS011;8007;51.404;6.304;2023-07-29T01:43:45;4.03;;;3.07;;
15812;SDS011;8007;51.404;6.304;2023-07-29T01:45:49;3.50;;;3.20;;
15812;SDS011;8007;51.404;6.304;2023-07-29T01:47:52;3.50;;;3.20;;
15812;SDS011;8007;51.404;6.304;2023-07-29T01:49:57;3.80;;;3.50;;
15812;SDS011;8007;51.404;6.304;2023-07-29T01:52:00;5.40;;;3.40;;
15812;SDS011;8007;51.404;6.304;2023-07-29T01:54:03;3.43;;;3.13;;
15812;SDS011;8007;51.404;6.304;2023-07-29T01:56:07;4.80;;;3.57;;
15812;SDS011;8007;51.404;6.304;2023-07-29T01:58:19;4.73;;;3.43;;
15812;SDS011;8007;51.404;6.304;2023-07-29T02:00:22;3.93;;;2.90;;
15812;SDS011;8007;51.404;6.304;2023-07-29T02:02:26;3.53;;;3.30;;
15812;SDS011;8007;51.404;6.304;2023-07-29T02:04:31;3.40;;;3.10;;
15812;SDS011;8007;51.404;6.304;2023-07-29T02:06:38;4.97;;;3.23;;
15812;SDS011;8007;51.404;6.304;2023-07-29T02:08:40;3.70;;;3.10;;
15812;SDS011;8007;51.404;6.304;2023-07-29T02:10:43;3.40;;;3.10;;
15812;SDS011;8007;51.404;6.304;2023-07-29T02:12:47;4.70;;;3.60;;
15812;SDS011;8007;51.404;6.304;2023-07-29T02:14:50;4.80;;;3.23;;
15812;SDS011;8007;51.404;6.304;2023-07-29T02:16:53;3.73;;;3.43;;
15812;SDS011;8007;51.404;6.304;2023-07-29T02:18:55;3.73;;;3.33;;
15812;SDS011;8007;51.404;6.304;2023-07-29T02:20:57;3.80;;;3.50;;
15812;SDS011;8007;51.404;6.304;2023-07-29T02:23:01;4.63;;;3.40;;
15812;SDS011;8007;51.404;6.304;2023-07-29T02:25:04;3.60;;;3.30;;
15812;SDS011;8007;51.404;6.304;2023-07-29T02:27:15;3.43;;;3.13;;
15812;SDS011;8007;51.404;6.304;2023-07-29T02:29:20;3.83;;;3.47;;
15812;SDS011;8007;51.404;6.304;2023-07-29T02:31:22;3.93;;;3.53;;
15812;SDS011;8007;51.404;6.304;2023-07-29T02:33:27;5.73;;;3.43;;
15812;SDS011;8007;51.404;6.304;2023-07-29T02:35:28;3.43;;;3.13;;
15812;SDS011;8007;51.404;6.304;2023-07-29T02:37:31;4.93;;;3.40;;
15812;SDS011;8007;51.404;6.304;2023-07-29T02:39:34;5.63;;;3.43;;
15812;SDS011;8007;51.404;6.304;2023-07-29T02:41:36;4.17;;;3.63;;
15812;SDS011;8007;51.404;6.304;2023-07-29T02:43:39;4.27;;;3.40;;
15812;SDS011;8007;51.404;6.304;2023-07-29T02:45:45;3.90;;;3.47;;
15812;SDS011;8007;51.404;6.304;2023-07-29T02:47:48;5.13;;;3.80;;
15812;SDS011;8007;51.404;6.304;2023-07-29T02:49:51;4.17;;;3.77;;
15812;SDS011;8007;51.404;6.304;2023-07-29T02:51:54;5.93;;;3.30;;
15812;SDS011;8007;51.404;6.304;2023-07-29T02:53:56;6.13;;;3.47;;
15812;SDS011;8007;51.404;6.304;2023-07-29T02:55:58;5.00;;;3.53;;
15812;SDS011;8007;51.404;6.304;2023-07-29T02:58:00;3.90;;;3.60;;
15812;SDS011;8007;51.404;6.304;2023-07-29T03:00:03;3.60;;;3.30;;
15812;SDS011;8007;51.404;6.304;2023-07-29T03:02:08;4.80;;;3.70;;
15812;SDS011;8007;51.404;6.304;2023-07-29T03:04:11;5.60;;;3.70;;
15812;SDS011;8007;51.404;6.304;2023-07-29T03:06:14;7.97;;;4.00;;
15812;SDS011;8007;51.404;6.304;2023-07-29T03:08:17;4.10;;;3.70;;
15812;SDS011;8007;51.404;6.304;2023-07-29T03:10:19;3.90;;;3.60;;
15812;SDS011;8007;51.404;6.304;2023-07-29T03:12:23;5.73;;;4.30;;
15812;SDS011;8007;51.404;6.304;2023-07-29T03:14:26;7.77;;;4.30;;
15812;SDS011;8007;51.404;6.304;2023-07-29T03:16:29;5.30;;;4.20;;
15812;SDS011;8007;51.404;6.304;2023-07-29T03:18:33;7.73;;;4.53;;
15812;SDS011;8007;51.404;6.304;2023-07-29T03:20:34;4.97;;;3.83;;
15812;SDS011;8007;51.404;6.304;2023-07-29T03:22:37;4.80;;;4.40;;
15812;SDS011;8007;51.404;6.304;2023-07-29T03:24:39;5.00;;;4.50;;
15812;SDS011;8007;51.404;6.304;2023-07-29T03:26:42;9.73;;;4.50;;
15812;SDS011;8007;51.404;6.304;2023-07-29T03:28:45;8.83;;;5.40;;
15812;SDS011;8007;51.404;6.304;2023-07-29T03:30:47;7.53;;;4.97;;
15812;SDS011;8007;51.404;6.304;2023-07-29T03:32:50;9.80;;;5.07;;
15812;SDS011;8007;51.404;6.304;2023-07-29T03:34:53;6.03;;;4.60;;
15812;SDS011;8007;51.404;6.304;2023-07-29T03:36:55;9.07;;;4.97;;
15812;SDS011;8007;51.404;6.304;2023-07-29T03:38:58;7.70;;;4.43;;
15812;SDS011;8007;51.404;6.304;2023-07-29T03:41:00;11.87;;;5.20;;
15812;SDS011;8007;51.404;6.304;2023-07-29T03:43:03;6.57;;;5.70;;
15812;SDS011;8007;51.404;6.304;2023-07-29T03:45:06;10.83;;;5.60;;
15812;SDS011;8007;51.404;6.304;2023-07-29T03:47:09;9.30;;;5.80;;
15812;SDS011;8007;51.404;6.304;2023-07-29T03:49:12;7.13;;;5.40;;
15812;SDS011;8007;51.404;6.304;2023-07-29T03:51:16;7.47;;;5.70;;
15812;SDS011;8007;51.404;6.304;2023-07-29T03:53:18;10.03;;;5.60;;
15812;SDS011;8007;51.404;6.304;2023-07-29T03:55:21;7.67;;;5.60;;
15812;SDS011;8007;51.404;6.304;2023-07-29T03:57:23;8.47;;;6.00;;
15812;SDS011;8007;51.404;6.304;2023-07-29T03:59:26;8.93;;;5.27;;
15812;SDS011;8007;51.404;6.304;2023-07-29T04:01:29;7.43;;;5.53;;
15812;SDS011;8007;51.404;6.304;2023-07-29T04:03:31;7.20;;;5.30;;
15812;SDS011;8007;51.404;6.304;2023-07-29T04:05:34;8.20;;;5.63;;
15812;SDS011;8007;51.404;6.304;2023-07-29T04:07:38;6.87;;;4.80;;
15812;SDS011;8007;51.404;6.304;2023-07-29T04:09:40;5.77;;;5.13;;
15812;SDS011;8007;51.404;6.304;2023-07-29T04:11:44;7.17;;;5.00;;
15812;SDS011;8007;51.404;6.304;2023-07-29T04:13:46;7.17;;;5.07;;
15812;SDS011;8007;51.404;6.304;2023-07-29T04:15:49;5.73;;;4.80;;
15812;SDS011;8007;51.404;6.304;2023-07-29T04:17:52;6.13;;;4.57;;
15812;SDS011;8007;51.404;6.304;2023-07-29T04:19:54;9.20;;;4.97;;
15812;SDS011;8007;51.404;6.304;2023-07-29T04:21:57;10.37;;;4.90;;
15812;SDS011;8007;51.404;6.304;2023-07-29T04:24:01;7.70;;;4.10;;
15812;SDS011;8007;51.404;6.304;2023-07-29T04:26:04;4.87;;;3.70;;
15812;SDS011;8007;51.404;6.304;2023-07-29T04:28:06;6.10;;;3.77;;
15812;SDS011;8007;51.404;6.304;2023-07-29T04:30:09;6.07;;;3.40;;
15812;SDS011;8007;51.404;6.304;2023-07-29T04:32:13;5.73;;;3.63;;
15812;SDS011;8007;51.404;6.304;2023-07-29T04:34:18;6.63;;;3.40;;
15812;SDS011;8007;51.404;6.304;2023-07-29T04:36:22;5.57;;;3.47;;
15812;SDS011;8007;51.404;6.304;2023-07-29T04:38:29;5.60;;;3.13;;
15812;SDS011;8007;51.404;6.304;2023-07-29T04:40:34;3.20;;;2.70;;
15812;SDS011;8007;51.404;6.304;2023-07-29T04:42:40;3.50;;;3.20;;
15812;SDS011;8007;51.404;6.304;2023-07-29T04:44:43;5.30;;;3.57;;
15812;SDS011;8007;51.404;6.304;2023-07-29T04:46:46;5.43;;;3.07;;
15812;SDS011;8007;51.404;6.304;2023-07-29T04:48:48;5.80;;;3.30;;
15812;SDS011;8007;51.404;6.304;2023-07-29T04:50:50;4.63;;;3.33;;
15812;SDS011;8007;51.404;6.304;2023-07-29T04:52:53;4.17;;;2.80;;
15812;SDS011;8007;51.404;6.304;2023-07-29T04:54:54;3.37;;;2.90;;
15812;SDS011;8007;51.404;6.304;2023-07-29T04:57:01;10.00;;;2.90;;
15812;SDS011;8007;51.404;6.304;2023-07-29T04:59:04;3.43;;;2.77;;
15812;SDS011;8007;51.404;6.304;2023-07-29T05:01:08;4.93;;;2.63;;
15812;SDS011;8007;51.404;6.304;2023-07-29T05:03:11;5.50;;;2.83;;
15812;SDS011;8007;51.404;6.304;2023-07-29T05:05:13;5.23;;;2.93;;
15812;SDS011;8007;51.404;6.304;2023-07-29T05:07:15;4.40;;;2.80;;
15812;SDS011;8007;51.404;6.304;2023-07-29T05:09:18;3.43;;;2.97;;
15812;SDS011;8007;51.404;6.304;2023-07-29T05:11:21;3.20;;;2.70;;
15812;SDS011;8007;51.404;6.304;2023-07-29T05:13:26;3.20;;;2.80;;
15812;SDS011;8007;51.404;6.304;2023-07-29T05:15:29;5.20;;;3.53;;
15812;SDS011;8007;51.404;6.304;2023-07-29T05:17:31;4.27;;;3.17;;
15812;SDS011;8007;51.404;6.304;2023-07-29T05:19:34;5.70;;;3.37;;
15812;SDS011;8007;51.404;6.304;2023-07-29T05:21:38;5.37;;;3.37;;
15812;SDS011;8007;51.404;6.304;2023-07-29T05:23:40;3.63;;;3.23;;
15812;SDS011;8007;51.404;6.304;2023-07-29T05:25:42;3.67;;;3.23;;
15812;SDS011;8007;51.404;6.304;2023-07-29T05:27:44;6.23;;;3.90;;
15812;SDS011;8007;51.404;6.304;2023-07-29T05:29:48;7.43;;;3.73;;
15812;SDS011;8007;51.404;6.304;2023-07-29T05:31:50;3.63;;;3.33;;
15812;SDS011;8007;51.404;6.304;2023-07-29T05:33:52;6.27;;;3.90;;
15812;SDS011;8007;51.404;6.304;2023-07-29T05:35:54;6.43;;;3.97;;
15812;SDS011;8007;51.404;6.304;2023-07-29T05:37:57;5.87;;;3.67;;
15812;SDS011;8007;51.404;6.304;2023-07-29T05:39:59;4.27;;;3.80;;
15812;SDS011;8007;51.404;6.304;2023-07-29T05:42:02;4.60;;;3.63;;
15812;SDS011;8007;51.404;6.304;2023-07-29T05:44:06;4.10;;;3.30;;
15812;SDS011;8007;51.404;6.304;2023-07-29T05:46:10;4.80;;;3.30;;
15812;SDS011;8007;51.404;6.304;2023-07-29T05:48:12;6.77;;;3.50;;
15812;SDS011;8007;51.404;6.304;2023-07-29T05:50:15;6.37;;;3.30;;
15812;SDS011;8007;51.404;6.304;2023-07-29T05:52:17;5.33;;;3.30;;
15812;SDS011;8007;51.404;6.304;2023-07-29T05:54:20;3.63;;;3.10;;
15812;SDS011;8007;51.404;6.304;2023-07-29T05:56:22;4.97;;;3.10;;
15812;SDS011;8007;51.404;6.304;2023-07-29T05:58:25;4.13;;;3.43;;
15812;SDS011;8007;51.404;6.304;2023-07-29T06:00:27;7.13;;;3.30;;
15812;SDS011;8007;51.404;6.304;2023-07-29T06:02:31;7.17;;;3.00;;
15812;SDS011;8007;51.404;6.304;2023-07-29T06:04:34;3.90;;;2.97;;
15812;SDS011;8007;51.404;6.304;2023-07-29T06:06:37;4.27;;;2.93;;
15812;SDS011;8007;51.404;6.304;2023-07-29T06:08:39;5.77;;;2.73;;
15812;SDS011;8007;51.404;6.304;2023-07-29T06:10:43;4.43;;;3.23;;
15812;SDS011;8007;51.404;6.304;2023-07-29T06:12:46;4.73;;;3.00;;
15812;SDS011;8007;51.404;6.304;2023-07-29T06:14:52;5.17;;;3.33;;
15812;SDS011;8007;51.404;6.304;2023-07-29T06:16:54;4.10;;;2.60;;
15812;SDS011;8007;51.404;6.304;2023-07-29T06:18:58;2.87;;;2.40;;
15812;SDS011;8007;51.404;6.304;2023-07-29T06:21:01;4.57;;;2.50;;
15812;SDS011;8007;51.404;6.304;2023-07-29T06:23:07;3.40;;;2.40;;
15812;SDS011;8007;51.404;6.304;2023-07-29T06:25:10;3.70;;;2.37;;
15812;SDS011;8007;51.404;6.304;2023-07-29T06:27:12;3.17;;;2.20;;
15812;SDS011;8007;51.404;6.304;2023-07-29T06:29:15;3.73;;;2.40;;
15812;SDS011;8007;51.404;6.304;2023-07-29T06:31:17;3.93;;;2.40;;
15812;SDS011;8007;51.404;6.304;2023-07-29T06:33:20;2.93;;;2.33;;
15812;SDS011;8007;51.404;6.304;2023-07-29T06:35:24;3.70;;;1.90;;
15812;SDS011;8007;51.404;6.304;2023-07-29T06:37:26;2.10;;;1.90;;
15812;SDS011;8007;51.404;6.304;2023-07-29T06:39:29;3.53;;;1.83;;
15812;SDS011;8007;51.404;6.304;2023-07-29T06:41:32;3.20;;;2.30;;
15812;SDS011;8007;51.404;6.304;2023-07-29T06:43:35;3.57;;;2.00;;
15812;SDS011;8007;51.404;6.304;2023-07-29T06:45:37;2.27;;;2.07;;
15812;SDS011;8007;51.404;6.304;2023-07-29T06:47:40;2.33;;;2.00;;
15812;SDS011;8007;51.404;6.304;2023-07-29T06:49:42;2.20;;;1.90;;
15812;SDS011;8007;51.404;6.304;2023-07-29T06:51:46;5.20;;;1.80;;
15812;SDS011;8007;51.404;6.304;2023-07-29T06:53:48;2.27;;;1.80;;
15812;SDS011;8007;51.404;6.304;2023-07-29T06:55:50;3.33;;;1.70;;
15812;SDS011;8007;51.404;6.304;2023-07-29T06:57:53;1.63;;;1.53;;
15812;SDS011;8007;51.404;6.304;2023-07-29T06:59:55;3.60;;;1.70;;
15812;SDS011;8007;51.404;6.304;2023-07-29T07:01:58;1.60;;;1.50;;
15812;SDS011;8007;51.404;6.304;2023-07-29T07:04:02;1.93;;;1.83;;
15812;SDS011;8007;51.404;6.304;2023-07-29T07:06:04;2.53;;;1.40;;
15812;SDS011;8007;51.404;6.304;2023-07-29T07:08:08;1.53;;;1.43;;
15812;SDS011;8007;51.404;6.304;2023-07-29T07:10:10;3.33;;;1.70;;
15812;SDS011;8007;51.404;6.304;2023-07-29T07:12:12;1.67;;;1.58;;
15812;SDS011;8007;51.404;6.304;2023-07-29T07:14:15;2.45;;;1.58;;
15812;SDS011;8007;51.404;6.304;2023-07-29T07:16:17;1.40;;;1.30;;
15812;SDS011;8007;51.404;6.304;2023-07-29T07:18:23;1.70;;;1.60;;
15812;SDS011;8007;51.404;6.304;2023-07-29T07:20:26;3.57;;;1.80;;
15812;SDS011;8007;51.404;6.304;2023-07-29T07:22:28;1.50;;;1.40;;
15812;SDS011;8007;51.404;6.304;2023-07-29T07:24:32;2.03;;;1.58;;
15812;SDS011;8007;51.404;6.304;2023-07-29T07:26:35;1.70;;;1.60;;
15812;SDS011;8007;51.404;6.304;2023-07-29T07:28:37;2.20;;;1.45;;
15812;SDS011;8007;51.404;6.304;2023-07-29T07:30:40;1.73;;;1.60;;
15812;SDS011;8007;51.404;6.304;2023-07-29T07:32:43;1.80;;;1.30;;
15812;SDS011;8007;51.404;6.304;2023-07-29T07:34:46;3.53;;;1.38;;
15812;SDS011;8007;51.404;6.304;2023-07-29T07:36:49;2.75;;;1.42;;
15812;SDS011;8007;51.404;6.304;2023-07-29T07:38:51;1.33;;;1.23;;
15812;SDS011;8007;51.404;6.304;2023-07-29T07:40:56;1.95;;;1.10;;
15812;SDS011;8007;51.404;6.304;2023-07-29T07:42:58;1.23;;;1.13;;
15812;SDS011;8007;51.404;6.304;2023-07-29T07:45:01;1.60;;;1.23;;
15812;SDS011;8007;51.404;6.304;2023-07-29T07:47:03;1.40;;;1.30;;
15812;SDS011;8007;51.404;6.304;2023-07-29T07:49:06;1.75;;;1.30;;
15812;SDS011;8007;51.404;6.304;2023-07-29T07:51:11;2.47;;;1.25;;
15812;SDS011;8007;51.404;6.304;2023-07-29T07:53:14;1.30;;;1.20;;
15812;SDS011;8007;51.404;6.304;2023-07-29T07:55:16;1.52;;;1.33;;
15812;SDS011;8007;51.404;6.304;2023-07-29T07:57:21;2.53;;;1.48;;
15812;SDS011;8007;51.404;6.304;2023-07-29T07:59:24;2.08;;;1.33;;
15812;SDS011;8007;51.404;6.304;2023-07-29T08:01:33;1.35;;;1.25;;
15812;SDS011;8007;51.404;6.304;2023-07-29T08:03:37;1.52;;;1.15;;
15812;SDS011;8007;51.404;6.304;2023-07-29T08:05:39;1.63;;;1.42;;
15812;SDS011;8007;51.404;6.304;2023-07-29T08:07:42;1.40;;;1.30;;
15812;SDS011;8007;51.404;6.304;2023-07-29T08:09:44;1.48;;;1.35;;
15812;SDS011;8007;51.404;6.304;2023-07-29T08:11:47;2.05;;;1.40;;
15812;SDS011;8007;51.404;6.304;2023-07-29T08:14:05;1.60;;;1.17;;
15812;SDS011;8007;51.404;6.304;2023-07-29T08:16:08;1.30;;;1.20;;
15812;SDS011;8007;51.404;6.304;2023-07-29T08:18:16;1.50;;;1.40;;
15812;SDS011;8007;51.404;6.304;2023-07-29T08:20:22;3.10;;;1.77;;
15812;SDS011;8007;51.404;6.304;2023-07-29T08:22:25;2.85;;;1.40;;
15812;SDS011;8007;51.404;6.304;2023-07-29T08:24:27;1.67;;;1.42;;
15812;SDS011;8007;51.404;6.304;2023-07-29T08:26:31;2.47;;;1.50;;
15812;SDS011;8007;51.404;6.304;2023-07-29T08:28:35;1.33;;;1.23;;
15812;SDS011;8007;51.404;6.304;2023-07-29T08:30:40;1.58;;;1.30;;
15812;SDS011;8007;51.404;6.304;2023-07-29T08:32:43;1.48;;;1.33;;
15812;SDS011;8007;51.404;6.304;2023-07-29T08:34:46;2.75;;;1.58;;
15812;SDS011;8007;51.404;6.304;2023-07-29T08:36:49;1.55;;;1.45;;
15812;SDS011;8007;51.404;6.304;2023-07-29T08:38:52;2.55;;;1.17;;
15812;SDS011;8007;51.404;6.304;2023-07-29T08:40:58;1.88;;;1.50;;
15812;SDS011;8007;51.404;6.304;2023-07-29T08:43:14;1.70;;;1.45;;
15812;SDS011;8007;51.404;6.304;2023-07-29T08:45:18;2.17;;;1.83;;
15812;SDS011;8007;51.404;6.304;2023-07-29T08:47:23;2.10;;;1.83;;
15812;SDS011;8007;51.404;6.304;2023-07-29T08:49:26;2.00;;;1.90;;
15812;SDS011;8007;51.404;6.304;2023-07-29T08:51:30;1.80;;;1.70;;
15812;SDS011;8007;51.404;6.304;2023-07-29T08:53:36;1.95;;;1.48;;
15812;SDS011;8007;51.404;6.304;2023-07-29T08:55:40;1.25;;;1.15;;
15812;SDS011;8007;51.404;6.304;2023-07-29T08:57:44;2.05;;;1.50;;
15812;SDS011;8007;51.404;6.304;2023-07-29T08:59:47;2.30;;;1.50;;
15812;SDS011;8007;51.404;6.304;2023-07-29T09:01:50;3.30;;;1.58;;
15812;SDS011;8007;51.404;6.304;2023-07-29T09:03:57;1.55;;;1.45;;
15812;SDS011;8007;51.404;6.304;2023-07-29T09:06:00;2.42;;;1.33;;
15812;SDS011;8007;51.404;6.304;2023-07-29T09:08:04;1.30;;;1.20;;
15812;SDS011;8007;51.404;6.304;2023-07-29T09:10:08;1.48;;;1.00;;
15812;SDS011;8007;51.404;6.304;2023-07-29T09:12:12;1.50;;;1.40;;
15812;SDS011;8007;51.404;6.304;2023-07-29T09:14:15;1.15;;;1.13;;
15812;SDS011;8007;51.404;6.304;2023-07-29T09:16:17;1.25;;;1.15;;
15812;SDS011;8007;51.404;6.304;2023-07-29T09:18:22;2.10;;;1.45;;
15812;SDS011;8007;51.404;6.304;2023-07-29T09:20:27;1.42;;;1.23;;
15812;SDS011;8007;51.404;6.304;2023-07-29T09:22:37;1.27;;;1.00;;
15812;SDS011;8007;51.404;6.304;2023-07-29T09:24:41;1.00;;;1.00;;
15812;SDS011;8007;51.404;6.304;2023-07-29T09:26:48;1.13;;;1.13;;
15812;SDS011;8007;51.404;6.304;2023-07-29T09:28:54;2.13;;;1.30;;
15812;SDS011;8007;51.404;6.304;2023-07-29T09:30:57;1.95;;;1.17;;
15812;SDS011;8007;51.404;6.304;2023-07-29T09:33:02;1.27;;;1.17;;
15812;SDS011;8007;51.404;6.304;2023-07-29T09:35:05;1.25;;;1.15;;
15812;SDS011;8007;51.404;6.304;2023-07-29T09:37:16;2.22;;;1.20;;
15812;SDS011;8007;51.404;6.304;2023-07-29T09:39:19;3.60;;;1.35;;
15812;SDS011;8007;51.404;6.304;2023-07-29T09:41:25;2.00;;;1.25;;
15812;SDS011;8007;51.404;6.304;2023-07-29T09:43:31;1.92;;;1.10;;
15812;SDS011;8007;51.404;6.304;2023-07-29T09:45:35;1.25;;;1.10;;
15812;SDS011;8007;51.404;6.304;2023-07-29T09:47:39;1.83;;;1.42;;
15812;SDS011;8007;51.404;6.304;2023-07-29T09:49:41;1.15;;;1.05;;
15812;SDS011;8007;51.404;6.304;2023-07-29T09:51:43;1.48;;;1.38;;
15812;SDS011;8007;51.404;6.304;2023-07-29T09:53:47;5.00;;;1.35;;
15812;SDS011;8007;51.404;6.304;2023-07-29T09:55:51;1.23;;;1.13;;
15812;SDS011;8007;51.404;6.304;2023-07-29T09:57:56;2.17;;;1.30;;
15812;SDS011;8007;51.404;6.304;2023-07-29T10:00:01;1.92;;;1.30;;
15812;SDS011;8007;51.404;6.304;2023-07-29T10:02:13;1.20;;;1.10;;
15812;SDS011;8007;51.404;6.304;2023-07-29T10:04:16;1.10;;;1.10;;
15812;SDS011;8007;51.404;6.304;2023-07-29T10:06:29;2.53;;;1.20;;
15812;SDS011;8007;51.404;6.304;2023-07-29T10:08:33;0.90;;;0.90;;
15812;SDS011;8007;51.404;6.304;2023-07-29T10:10:49;1.92;;;1.35;;
15812;SDS011;8007;51.404;6.304;2023-07-29T10:13:08;1.42;;;1.33;;
15812;SDS011;8007;51.404;6.304;2023-07-29T10:15:17;2.50;;;1.02;;
15812;SDS011;8007;51.404;6.304;2023-07-29T10:17:20;1.20;;;0.98;;
15812;SDS011;8007;51.404;6.304;2023-07-29T10:19:23;1.23;;;1.10;;
15812;SDS011;8007;51.404;6.304;2023-07-29T10:21:31;1.50;;;1.10;;
15812;SDS011;8007;51.404;6.304;2023-07-29T10:23:34;1.80;;;1.23;;
15812;SDS011;8007;51.404;6.304;2023-07-29T10:25:43;2.30;;;1.20;;
15812;SDS011;8007;51.404;6.304;2023-07-29T10:27:49;1.52;;;1.35;;
15812;SDS011;8007;51.404;6.304;2023-07-29T10:29:57;1.48;;;1.38;;
15812;SDS011;8007;51.404;6.304;2023-07-29T10:32:01;3.55;;;1.20;;
15812;SDS011;8007;51.404;6.304;2023-07-29T10:34:03;1.83;;;1.20;;
15812;SDS011;8007;51.404;6.304;2023-07-29T10:36:16;1.40;;;1.25;;
15812;SDS011;8007;51.404;6.304;2023-07-29T10:38:21;1.27;;;1.17;;
15812;SDS011;8007;51.404;6.304;2023-07-29T10:40:54;2.50;;;1.27;;
15812;SDS011;8007;51.404;6.304;2023-07-29T10:43:00;1.48;;;1.10;;
15812;SDS011;8007;51.404;6.304;2023-07-29T10:45:18;10.27;;;1.60;;
15812;SDS011;8007;51.404;6.304;2023-07-29T10:47:28;1.80;;;1.20;;
15812;SDS011;8007;51.404;6.304;2023-07-29T10:49:39;3.08;;;1.42;;
15812;SDS011;8007;51.404;6.304;2023-07-29T10:51:42;1.42;;;1.15;;
15812;SDS011;8007;51.404;6.304;2023-07-29T10:53:44;2.00;;;1.40;;
15812;SDS011;8007;51.404;6.304;2023-07-29T10:55:47;1.35;;;1.25;;
15812;SDS011;8007;51.404;6.304;2023-07-29T10:57:50;1.55;;;1.30;;
15812;SDS011;8007;51.404;6.304;2023-07-29T10:59:54;7.57;;;1.52;;
15812;SDS011;8007;51.404;6.304;2023-07-29T11:01:58;1.45;;;1.20;;
15812;SDS011;8007;51.404;6.304;2023-07-29T11:06:26;1.33;;;1.23;;
15812;SDS011;8007;51.404;6.304;2023-07-29T11:08:29;4.30;;;1.35;;
15812;SDS011;8007;51.404;6.304;2023-07-29T11:10:41;2.13;;;1.25;;
15812;SDS011;8007;51.404;6.304;2023-07-29T11:12:46;2.00;;;1.42;;
15812;SDS011;8007;51.404;6.304;2023-07-29T11:14:51;1.58;;;1.20;;
15812;SDS011;8007;51.404;6.304;2023-07-29T11:16:54;1.50;;;1.40;;
15812;SDS011;8007;51.404;6.304;2023-07-29T11:18:56;1.48;;;1.38;;
15812;SDS011;8007;51.404;6.304;2023-07-29T11:21:01;1.30;;;1.20;;
15812;SDS011;8007;51.404;6.304;2023-07-29T11:23:03;1.48;;;1.38;;
15812;SDS011;8007;51.404;6.304;2023-07-29T11:25:07;2.55;;;1.30;;
15812;SDS011;8007;51.404;6.304;2023-07-29T11:27:11;1.52;;;1.42;;
15812;SDS011;8007;51.404;6.304;2023-07-29T11:29:15;1.50;;;1.40;;
15812;SDS011;8007;51.404;6.304;2023-07-29T11:31:18;2.45;;;1.50;;
15812;SDS011;8007;51.404;6.304;2023-07-29T11:33:25;1.13;;;1.10;;
15812;SDS011;8007;51.404;6.304;2023-07-29T11:35:31;1.45;;;1.33;;
15812;SDS011;8007;51.404;6.304;2023-07-29T11:37:38;1.30;;;1.17;;
15812;SDS011;8007;51.404;6.304;2023-07-29T11:39:47;2.40;;;1.38;;
15812;SDS011;8007;51.404;6.304;2023-07-29T11:41:51;4.85;;;1.50;;
15812;SDS011;8007;51.404;6.304;2023-07-29T11:43:54;7.80;;;1.42;;
15812;SDS011;8007;51.404;6.304;2023-07-29T11:45:59;2.08;;;1.67;;
15812;SDS011;8007;51.404;6.304;2023-07-29T11:48:03;4.88;;;2.05;;
15812;SDS011;8007;51.404;6.304;2023-07-29T11:50:07;1.85;;;1.75;;
15812;SDS011;8007;51.404;6.304;2023-07-29T11:52:11;2.33;;;1.38;;
15812;SDS011;8007;51.404;6.304;2023-07-29T11:54:19;2.58;;;1.48;;
15812;SDS011;8007;51.404;6.304;2023-07-29T11:56:22;2.33;;;1.23;;
15812;SDS011;8007;51.404;6.304;2023-07-29T11:58:23;1.65;;;1.25;;
15812;SDS011;8007;51.404;6.304;2023-07-29T12:00:27;2.63;;;1.50;;
15812;SDS011;8007;51.404;6.304;2023-07-29T12:02:32;1.98;;;1.33;;
15812;SDS011;8007;51.404;6.304;2023-07-29T12:04:35;1.73;;;1.52;;
15812;SDS011;8007;51.404;6.304;2023-07-29T12:06:37;1.55;;;1.45;;
15812;SDS011;8007;51.404;6.304;2023-07-29T12:08:41;2.25;;;1.58;;
15812;SDS011;8007;51.404;6.304;2023-07-29T12:10:44;1.58;;;1.48;;
15812;SDS011;8007;51.404;6.304;2023-07-29T12:12:46;4.13;;;1.50;;
15812;SDS011;8007;51.404;6.304;2023-07-29T12:14:50;2.22;;;1.80;;
15812;SDS011;8007;51.404;6.304;2023-07-29T12:16:53;2.65;;;1.40;;
15812;SDS011;8007;51.404;6.304;2023-07-29T12:18:57;1.70;;;1.60;;
15812;SDS011;8007;51.404;6.304;2023-07-29T12:21:02;1.38;;;1.27;;
15812;SDS011;8007;51.404;6.304;2023-07-29T12:23:04;2.20;;;1.45;;
15812;SDS011;8007;51.404;6.304;2023-07-29T12:25:08;2.20;;;1.38;;
15812;SDS011;8007;51.404;6.304;2023-07-29T12:27:10;2.10;;;1.50;;
15812;SDS011;8007;51.404;6.304;2023-07-29T12:29:16;2.28;;;1.50;;
15812;SDS011;8007;51.404;6.304;2023-07-29T12:31:19;1.92;;;1.60;;
15812;SDS011;8007;51.404;6.304;2023-07-29T12:33:33;1.83;;;1.50;;
15812;SDS011;8007;51.404;6.304;2023-07-29T12:35:40;1.70;;;1.60;;
15812;SDS011;8007;51.404;6.304;2023-07-29T12:37:42;2.58;;;1.60;;
15812;SDS011;8007;51.404;6.304;2023-07-29T12:39:45;2.97;;;1.50;;
15812;SDS011;8007;51.404;6.304;2023-07-29T12:41:52;2.85;;;1.50;;
15812;SDS011;8007;51.404;6.304;2023-07-29T12:43:55;2.83;;;1.70;;
15812;SDS011;8007;51.404;6.304;2023-07-29T12:45:57;1.67;;;1.40;;
15812;SDS011;8007;51.404;6.304;2023-07-29T12:48:03;1.60;;;1.50;;